Marlborough, NH (03455)

12:29 PM EST on February 09, 2016 (GMT -0500)
APRSWXNET | | Change Station
CLOSE
Current Station
Personal Weather Station
Location: Marlborough, NH
Elevation: 754 ft
Nearby Weather Stations

Elev 754 ft 42.91 °N, 72.22 °W | Updated 30 minutes ago

Partly Cloudy
Partly Cloudy
26 °F
Feels Like 26 °F
N
0
Wind Variable Wind from East
Gusts 2.0 mph

Today
High -- | Low -- °F
--% Chance of Precip.
Yesterday
High -- | Low -- °F
Precip. -- in
Pressure 29.60 in
Visibility 10.0 miles
Clouds Clear
Windchill 26 °F
Dew Point 18 °F
Humidity 70%
Rainfall in
Snow Depth Not available.
6:54 AM 5:11 PM
New Moon, 2% visible
METAR KEEN 091715Z AUTO 00000KT 10SM CLR M04/M12 A2960 RMK AO1
Pressure 29.60 in
Visibility 10.0 miles
Clouds Clear
Windchill 26 °F
Dew Point 18 °F
Humidity 70%
Rainfall in
Snow Depth Not available.
6:54 AM 5:11 PM
New Moon, 2% visible
METAR KEEN 091715Z AUTO 00000KT 10SM CLR M04/M12 A2960 RMK AO1

10-Day Weather Forecast

Almanac

Astronomy

Feb. 09, 2016 Rise Set
Actual Time
Civil Twilight
Nautical Twilight
Astronomical Twilight
Moon
Length of Visible Light
Length of Day
Tomorrow will be .
, % of the Moon is Illuminated

Today's Extremes

State Highs State Lows

Community

WunderPhotos

Upload Photos

1,891,637 photos uploaded!

WunderBlog® & News

Nearby

Air Quality

  Air Quality AQ Index Pollutant
Not available.

Snow Depth

Station Depth Elevation

Earthquake Activity

City Distance Mag. Time & Date
Minimum magnitude displayed is 2.5.

Coastal Water Temperatures

Place Temperature

Stations

Nearby Weather Stations

Station Location Temp. Windchill Dew Point Humidity Wind Precip. Elev Updated Type
                   

Watches & Warnings

There are currently no watches in effect.